sensor_id;sensor_type;location;lat;lon;timestamp;temperature;humidity
55648;DHT22;45266;48.756;9.246;2023-06-04T00:00:49;13.40;99.90
55648;DHT22;45266;48.756;9.246;2023-06-04T00:01:51;13.40;99.90
55648;DHT22;45266;48.756;9.246;2023-06-04T00:02:53;13.40;99.90
55648;DHT22;45266;48.756;9.246;2023-06-04T00:03:55;13.40;99.90
55648;DHT22;45266;48.756;9.246;2023-06-04T00:04:57;13.30;99.90
55648;DHT22;45266;48.756;9.246;2023-06-04T00:05:59;13.40;99.90
55648;DHT22;45266;48.756;9.246;2023-06-04T00:07:01;13.30;99.90
55648;DHT22;45266;48.756;9.246;2023-06-04T00:08:03;13.30;99.90
55648;DHT22;45266;48.756;9.246;2023-06-04T00:09:05;13.30;99.90
55648;DHT22;45266;48.756;9.246;2023-06-04T00:10:07;13.30;99.90
55648;DHT22;45266;48.756;9.246;2023-06-04T00:11:09;13.30;99.90
55648;DHT22;45266;48.756;9.246;2023-06-04T00:12:11;13.30;99.90
55648;DHT22;45266;48.756;9.246;2023-06-04T00:13:13;13.30;99.90
55648;DHT22;45266;48.756;9.246;2023-06-04T00:14:15;13.20;99.90
55648;DHT22;45266;48.756;9.246;2023-06-04T00:15:17;13.20;99.90
55648;DHT22;45266;48.756;9.246;2023-06-04T00:16:19;13.20;99.90
55648;DHT22;45266;48.756;9.246;2023-06-04T00:17:21;13.20;99.90
55648;DHT22;45266;48.756;9.246;2023-06-04T00:18:23;13.20;99.90
55648;DHT22;45266;48.756;9.246;2023-06-04T00:19:25;13.20;99.90
55648;DHT22;45266;48.756;9.246;2023-06-04T00:20:27;13.10;99.90
55648;DHT22;45266;48.756;9.246;2023-06-04T00:21:29;13.10;99.90
55648;DHT22;45266;48.756;9.246;2023-06-04T00:22:31;13.10;99.90
55648;DHT22;45266;48.756;9.246;2023-06-04T00:23:33;13.10;99.90
55648;DHT22;45266;48.756;9.246;2023-06-04T00:24:37;13.10;99.90
55648;DHT22;45266;48.756;9.246;2023-06-04T00:25:39;13.10;99.90
55648;DHT22;45266;48.756;9.246;2023-06-04T00:26:41;13.10;99.90
55648;DHT22;45266;48.756;9.246;2023-06-04T00:27:43;13.10;99.90
55648;DHT22;45266;48.756;9.246;2023-06-04T00:28:44;13.00;99.90
55648;DHT22;45266;48.756;9.246;2023-06-04T00:29:46;13.00;99.90
55648;DHT22;45266;48.756;9.246;2023-06-04T00:30:48;13.00;99.90
55648;DHT22;45266;48.756;9.246;2023-06-04T00:31:50;13.00;99.90
55648;DHT22;45266;48.756;9.246;2023-06-04T00:32:52;13.00;99.90
55648;DHT22;45266;48.756;9.246;2023-06-04T00:33:54;13.00;99.90
55648;DHT22;45266;48.756;9.246;2023-06-04T00:34:56;12.90;99.90
55648;DHT22;45266;48.756;9.246;2023-06-04T00:35:59;12.90;99.90
55648;DHT22;45266;48.756;9.246;2023-06-04T00:37:01;12.90;99.90
55648;DHT22;45266;48.756;9.246;2023-06-04T00:38:03;12.90;99.90
55648;DHT22;45266;48.756;9.246;2023-06-04T00:39:05;12.90;99.90
55648;DHT22;45266;48.756;9.246;2023-06-04T00:40:07;12.90;99.90
55648;DHT22;45266;48.756;9.246;2023-06-04T00:41:09;12.90;99.90
55648;DHT22;45266;48.756;9.246;2023-06-04T00:42:11;12.90;99.90
55648;DHT22;45266;48.756;9.246;2023-06-04T00:43:13;12.80;99.90
55648;DHT22;45266;48.756;9.246;2023-06-04T00:44:15;12.90;99.90
55648;DHT22;45266;48.756;9.246;2023-06-04T00:45:17;12.80;99.90
55648;DHT22;45266;48.756;9.246;2023-06-04T00:46:26;12.80;99.90
55648;DHT22;45266;48.756;9.246;2023-06-04T00:47:28;12.80;99.90
55648;DHT22;45266;48.756;9.246;2023-06-04T00:48:30;12.80;99.90
55648;DHT22;45266;48.756;9.246;2023-06-04T00:49:33;12.80;99.90
55648;DHT22;45266;48.756;9.246;2023-06-04T00:50:35;12.80;99.90
55648;DHT22;45266;48.756;9.246;2023-06-04T00:51:37;12.80;99.90
55648;DHT22;45266;48.756;9.246;2023-06-04T00:52:40;12.80;99.90
55648;DHT22;45266;48.756;9.246;2023-06-04T00:53:41;12.70;99.90
55648;DHT22;45266;48.756;9.246;2023-06-04T00:54:44;12.70;99.90
55648;DHT22;45266;48.756;9.246;2023-06-04T00:55:46;12.70;99.90
55648;DHT22;45266;48.756;9.246;2023-06-04T00:56:48;12.70;99.90
55648;DHT22;45266;48.756;9.246;2023-06-04T00:57:50;12.70;99.90
55648;DHT22;45266;48.756;9.246;2023-06-04T00:58:52;12.70;99.90
55648;DHT22;45266;48.756;9.246;2023-06-04T00:59:55;12.60;99.90
55648;DHT22;45266;48.756;9.246;2023-06-04T01:00:59;12.60;99.90
55648;DHT22;45266;48.756;9.246;2023-06-04T01:02:16;12.60;99.90
55648;DHT22;45266;48.756;9.246;2023-06-04T01:03:23;12.60;99.90
55648;DHT22;45266;48.756;9.246;2023-06-04T01:06:04;12.60;99.90
55648;DHT22;45266;48.756;9.246;2023-06-04T01:07:12;12.60;99.90
55648;DHT22;45266;48.756;9.246;2023-06-04T01:08:15;12.60;99.90
55648;DHT22;45266;48.756;9.246;2023-06-04T01:09:18;12.70;99.90
55648;DHT22;45266;48.756;9.246;2023-06-04T01:10:19;12.70;99.90
55648;DHT22;45266;48.756;9.246;2023-06-04T01:11:37;12.60;99.90
55648;DHT22;45266;48.756;9.246;2023-06-04T01:12:40;12.60;99.90
55648;DHT22;45266;48.756;9.246;2023-06-04T01:13:42;12.60;99.90
55648;DHT22;45266;48.756;9.246;2023-06-04T01:14:44;12.60;99.90
55648;DHT22;45266;48.756;9.246;2023-06-04T01:15:46;12.60;99.90
55648;DHT22;45266;48.756;9.246;2023-06-04T01:16:59;12.50;99.90
55648;DHT22;45266;48.756;9.246;2023-06-04T01:18:06;12.50;99.90
55648;DHT22;45266;48.756;9.246;2023-06-04T01:19:22;12.50;99.90
55648;DHT22;45266;48.756;9.246;2023-06-04T01:20:42;12.40;99.90
55648;DHT22;45266;48.756;9.246;2023-06-04T01:21:45;12.40;99.90
55648;DHT22;45266;48.756;9.246;2023-06-04T01:24:04;12.40;99.90
55648;DHT22;45266;48.756;9.246;2023-06-04T01:25:33;12.30;99.90
55648;DHT22;45266;48.756;9.246;2023-06-04T01:26:35;12.30;99.90
55648;DHT22;45266;48.756;9.246;2023-06-04T01:27:38;12.30;99.90
55648;DHT22;45266;48.756;9.246;2023-06-04T01:28:42;12.20;99.90
55648;DHT22;45266;48.756;9.246;2023-06-04T01:29:44;12.20;99.90
55648;DHT22;45266;48.756;9.246;2023-06-04T01:30:47;12.20;99.90
55648;DHT22;45266;48.756;9.246;2023-06-04T01:31:51;12.10;99.90
55648;DHT22;45266;48.756;9.246;2023-06-04T01:32:54;12.10;99.90
55648;DHT22;45266;48.756;9.246;2023-06-04T01:33:56;12.10;99.90
55648;DHT22;45266;48.756;9.246;2023-06-04T01:34:59;12.10;99.90
55648;DHT22;45266;48.756;9.246;2023-06-04T01:36:01;12.10;99.90
55648;DHT22;45266;48.756;9.246;2023-06-04T01:37:03;12.10;99.90
55648;DHT22;45266;48.756;9.246;2023-06-04T01:38:06;12.10;99.90
55648;DHT22;45266;48.756;9.246;2023-06-04T01:39:08;12.00;99.90
55648;DHT22;45266;48.756;9.246;2023-06-04T01:40:10;12.00;99.90
55648;DHT22;45266;48.756;9.246;2023-06-04T01:41:12;12.00;99.90
55648;DHT22;45266;48.756;9.246;2023-06-04T01:42:13;11.90;99.90
55648;DHT22;45266;48.756;9.246;2023-06-04T01:43:16;11.90;99.90
55648;DHT22;45266;48.756;9.246;2023-06-04T01:44:18;11.90;99.90
55648;DHT22;45266;48.756;9.246;2023-06-04T01:45:21;11.90;99.90
55648;DHT22;45266;48.756;9.246;2023-06-04T01:46:23;11.90;99.90
55648;DHT22;45266;48.756;9.246;2023-06-04T01:47:25;11.80;99.90
55648;DHT22;45266;48.756;9.246;2023-06-04T01:48:27;11.90;99.90
55648;DHT22;45266;48.756;9.246;2023-06-04T01:49:29;11.80;99.90
55648;DHT22;45266;48.756;9.246;2023-06-04T01:50:31;11.80;99.90
55648;DHT22;45266;48.756;9.246;2023-06-04T01:51:33;11.80;99.90
55648;DHT22;45266;48.756;9.246;2023-06-04T01:52:36;11.80;99.90
55648;DHT22;45266;48.756;9.246;2023-06-04T01:53:38;11.80;99.90
55648;DHT22;45266;48.756;9.246;2023-06-04T01:54:40;11.80;99.90
55648;DHT22;45266;48.756;9.246;2023-06-04T01:55:43;11.80;99.90
55648;DHT22;45266;48.756;9.246;2023-06-04T01:56:46;11.80;99.90
55648;DHT22;45266;48.756;9.246;2023-06-04T01:57:50;11.80;99.90
55648;DHT22;45266;48.756;9.246;2023-06-04T01:58:52;11.80;99.90
55648;DHT22;45266;48.756;9.246;2023-06-04T01:59:54;11.80;99.90
55648;DHT22;45266;48.756;9.246;2023-06-04T02:00:56;11.80;99.90
55648;DHT22;45266;48.756;9.246;2023-06-04T02:02:02;11.80;99.90
55648;DHT22;45266;48.756;9.246;2023-06-04T02:03:04;11.70;99.90
55648;DHT22;45266;48.756;9.246;2023-06-04T02:04:06;11.70;99.90
55648;DHT22;45266;48.756;9.246;2023-06-04T02:05:08;11.70;99.90
55648;DHT22;45266;48.756;9.246;2023-06-04T02:06:10;11.70;99.90
55648;DHT22;45266;48.756;9.246;2023-06-04T02:07:12;11.70;99.90
55648;DHT22;45266;48.756;9.246;2023-06-04T02:08:19;11.70;99.90
55648;DHT22;45266;48.756;9.246;2023-06-04T02:09:21;11.70;99.90
55648;DHT22;45266;48.756;9.246;2023-06-04T02:10:23;11.70;99.90
55648;DHT22;45266;48.756;9.246;2023-06-04T02:11:24;11.70;99.90
55648;DHT22;45266;48.756;9.246;2023-06-04T02:12:26;11.80;99.90
55648;DHT22;45266;48.756;9.246;2023-06-04T02:13:28;11.70;99.90
55648;DHT22;45266;48.756;9.246;2023-06-04T02:14:30;11.70;99.90
55648;DHT22;45266;48.756;9.246;2023-06-04T02:15:32;11.70;99.90
55648;DHT22;45266;48.756;9.246;2023-06-04T02:16:34;11.60;99.90
55648;DHT22;45266;48.756;9.246;2023-06-04T02:17:36;11.60;99.90
55648;DHT22;45266;48.756;9.246;2023-06-04T02:18:41;11.70;99.90
55648;DHT22;45266;48.756;9.246;2023-06-04T02:19:44;11.60;99.90
55648;DHT22;45266;48.756;9.246;2023-06-04T02:20:48;11.60;99.90
55648;DHT22;45266;48.756;9.246;2023-06-04T02:21:50;11.60;99.90
55648;DHT22;45266;48.756;9.246;2023-06-04T02:22:53;11.60;99.90
55648;DHT22;45266;48.756;9.246;2023-06-04T02:23:55;11.60;99.90
55648;DHT22;45266;48.756;9.246;2023-06-04T02:24:57;11.60;99.90
55648;DHT22;45266;48.756;9.246;2023-06-04T02:25:58;11.60;99.90
55648;DHT22;45266;48.756;9.246;2023-06-04T02:27:00;11.60;99.90
55648;DHT22;45266;48.756;9.246;2023-06-04T02:28:02;11.60;99.90
55648;DHT22;45266;48.756;9.246;2023-06-04T02:29:04;11.60;99.90
55648;DHT22;45266;48.756;9.246;2023-06-04T02:30:07;11.50;99.90
55648;DHT22;45266;48.756;9.246;2023-06-04T02:31:09;11.50;99.90
55648;DHT22;45266;48.756;9.246;2023-06-04T02:32:11;11.50;99.90
55648;DHT22;45266;48.756;9.246;2023-06-04T02:33:14;11.50;99.90
55648;DHT22;45266;48.756;9.246;2023-06-04T02:34:16;11.40;99.90
55648;DHT22;45266;48.756;9.246;2023-06-04T02:35:18;11.40;99.90
55648;DHT22;45266;48.756;9.246;2023-06-04T02:36:20;11.40;99.90
55648;DHT22;45266;48.756;9.246;2023-06-04T02:37:22;11.30;99.90
55648;DHT22;45266;48.756;9.246;2023-06-04T02:38:24;11.30;99.90
55648;DHT22;45266;48.756;9.246;2023-06-04T02:39:26;11.30;99.90
55648;DHT22;45266;48.756;9.246;2023-06-04T02:40:28;11.30;99.90
55648;DHT22;45266;48.756;9.246;2023-06-04T02:41:30;11.30;99.90
55648;DHT22;45266;48.756;9.246;2023-06-04T02:42:32;11.30;99.90
55648;DHT22;45266;48.756;9.246;2023-06-04T02:43:34;11.30;99.90
55648;DHT22;45266;48.756;9.246;2023-06-04T02:44:36;11.30;99.90
55648;DHT22;45266;48.756;9.246;2023-06-04T02:45:38;11.30;99.90
55648;DHT22;45266;48.756;9.246;2023-06-04T02:46:40;11.30;99.90
55648;DHT22;45266;48.756;9.246;2023-06-04T02:47:41;11.20;99.90
55648;DHT22;45266;48.756;9.246;2023-06-04T02:48:43;11.30;99.90
55648;DHT22;45266;48.756;9.246;2023-06-04T02:49:45;11.30;99.90
55648;DHT22;45266;48.756;9.246;2023-06-04T02:50:48;11.30;99.90
55648;DHT22;45266;48.756;9.246;2023-06-04T02:51:50;11.30;99.90
55648;DHT22;45266;48.756;9.246;2023-06-04T02:52:52;11.30;99.90
55648;DHT22;45266;48.756;9.246;2023-06-04T02:53:54;11.20;99.90
55648;DHT22;45266;48.756;9.246;2023-06-04T02:54:56;11.30;99.90
55648;DHT22;45266;48.756;9.246;2023-06-04T02:55:58;11.30;99.90
55648;DHT22;45266;48.756;9.246;2023-06-04T02:57:00;11.20;99.90
55648;DHT22;45266;48.756;9.246;2023-06-04T02:58:02;11.20;99.90
55648;DHT22;45266;48.756;9.246;2023-06-04T02:59:04;11.20;99.90
55648;DHT22;45266;48.756;9.246;2023-06-04T03:00:07;11.20;99.90
55648;DHT22;45266;48.756;9.246;2023-06-04T03:01:22;11.20;99.90
55648;DHT22;45266;48.756;9.246;2023-06-04T03:02:24;11.10;99.90
55648;DHT22;45266;48.756;9.246;2023-06-04T03:03:26;11.20;99.90
55648;DHT22;45266;48.756;9.246;2023-06-04T03:04:28;11.10;99.90
55648;DHT22;45266;48.756;9.246;2023-06-04T03:05:35;11.10;99.90
55648;DHT22;45266;48.756;9.246;2023-06-04T03:06:38;11.10;99.90
55648;DHT22;45266;48.756;9.246;2023-06-04T03:07:41;11.10;99.90
55648;DHT22;45266;48.756;9.246;2023-06-04T03:08:51;11.10;99.90
55648;DHT22;45266;48.756;9.246;2023-06-04T03:09:53;11.10;99.90
55648;DHT22;45266;48.756;9.246;2023-06-04T03:10:54;11.00;99.90
55648;DHT22;45266;48.756;9.246;2023-06-04T03:12:00;11.00;99.90
55648;DHT22;45266;48.756;9.246;2023-06-04T03:13:04;11.00;99.90
55648;DHT22;45266;48.756;9.246;2023-06-04T03:14:06;11.00;99.90
55648;DHT22;45266;48.756;9.246;2023-06-04T03:15:09;10.90;99.90
55648;DHT22;45266;48.756;9.246;2023-06-04T03:16:11;10.90;99.90
55648;DHT22;45266;48.756;9.246;2023-06-04T03:17:13;10.90;99.90
55648;DHT22;45266;48.756;9.246;2023-06-04T03:18:15;10.90;99.90
55648;DHT22;45266;48.756;9.246;2023-06-04T03:19:17;10.90;99.90
55648;DHT22;45266;48.756;9.246;2023-06-04T03:20:19;10.90;99.90
55648;DHT22;45266;48.756;9.246;2023-06-04T03:21:21;10.90;99.90
55648;DHT22;45266;48.756;9.246;2023-06-04T03:22:23;10.90;99.90
55648;DHT22;45266;48.756;9.246;2023-06-04T03:23:25;10.90;99.90
55648;DHT22;45266;48.756;9.246;2023-06-04T03:24:27;10.90;99.90
55648;DHT22;45266;48.756;9.246;2023-06-04T03:25:29;10.90;99.90
55648;DHT22;45266;48.756;9.246;2023-06-04T03:26:30;10.90;99.90
55648;DHT22;45266;48.756;9.246;2023-06-04T03:27:33;10.90;99.90
55648;DHT22;45266;48.756;9.246;2023-06-04T03:28:35;10.90;99.90
55648;DHT22;45266;48.756;9.246;2023-06-04T03:29:37;10.90;99.90
55648;DHT22;45266;48.756;9.246;2023-06-04T03:30:42;10.90;99.90
55648;DHT22;45266;48.756;9.246;2023-06-04T03:31:44;10.90;99.90
55648;DHT22;45266;48.756;9.246;2023-06-04T03:32:46;10.90;99.90
55648;DHT22;45266;48.756;9.246;2023-06-04T03:33:49;10.90;99.90
55648;DHT22;45266;48.756;9.246;2023-06-04T03:34:51;10.80;99.90
55648;DHT22;45266;48.756;9.246;2023-06-04T03:35:53;10.80;99.90
55648;DHT22;45266;48.756;9.246;2023-06-04T03:36:55;10.80;99.90
55648;DHT22;45266;48.756;9.246;2023-06-04T03:37:57;10.80;99.90
55648;DHT22;45266;48.756;9.246;2023-06-04T03:38:59;10.80;99.90
55648;DHT22;45266;48.756;9.246;2023-06-04T03:40:00;10.80;99.90
55648;DHT22;45266;48.756;9.246;2023-06-04T03:41:07;10.80;99.90
55648;DHT22;45266;48.756;9.246;2023-06-04T03:42:09;10.80;99.90
55648;DHT22;45266;48.756;9.246;2023-06-04T03:43:11;10.80;99.90
55648;DHT22;45266;48.756;9.246;2023-06-04T03:44:17;10.90;99.90
55648;DHT22;45266;48.756;9.246;2023-06-04T03:45:19;10.80;99.90
55648;DHT22;45266;48.756;9.246;2023-06-04T03:46:21;10.90;99.90
55648;DHT22;45266;48.756;9.246;2023-06-04T03:47:23;10.90;99.90
55648;DHT22;45266;48.756;9.246;2023-06-04T03:48:25;10.90;99.90
55648;DHT22;45266;48.756;9.246;2023-06-04T03:49:27;10.90;99.90
55648;DHT22;45266;48.756;9.246;2023-06-04T03:50:29;10.90;99.90
55648;DHT22;45266;48.756;9.246;2023-06-04T03:51:31;11.00;99.90
55648;DHT22;45266;48.756;9.246;2023-06-04T03:52:35;11.00;99.90
55648;DHT22;45266;48.756;9.246;2023-06-04T03:53:36;11.00;99.90
55648;DHT22;45266;48.756;9.246;2023-06-04T03:54:38;11.00;99.90
55648;DHT22;45266;48.756;9.246;2023-06-04T03:55:41;11.00;99.90
55648;DHT22;45266;48.756;9.246;2023-06-04T03:56:44;11.00;99.90
55648;DHT22;45266;48.756;9.246;2023-06-04T03:57:48;11.00;99.90
55648;DHT22;45266;48.756;9.246;2023-06-04T03:58:50;11.00;99.90
55648;DHT22;45266;48.756;9.246;2023-06-04T03:59:52;11.00;99.90
55648;DHT22;45266;48.756;9.246;2023-06-04T04:00:55;11.00;99.90
55648;DHT22;45266;48.756;9.246;2023-06-04T04:01:59;11.00;99.90
55648;DHT22;45266;48.756;9.246;2023-06-04T04:03:01;11.00;99.90
55648;DHT22;45266;48.756;9.246;2023-06-04T04:04:04;11.00;99.90
55648;DHT22;45266;48.756;9.246;2023-06-04T04:05:07;11.00;99.90
55648;DHT22;45266;48.756;9.246;2023-06-04T04:06:09;11.00;99.90
55648;DHT22;45266;48.756;9.246;2023-06-04T04:07:12;11.00;99.90
55648;DHT22;45266;48.756;9.246;2023-06-04T04:08:14;11.10;99.90
55648;DHT22;45266;48.756;9.246;2023-06-04T04:09:18;11.10;99.90
55648;DHT22;45266;48.756;9.246;2023-06-04T04:10:20;11.10;99.90
55648;DHT22;45266;48.756;9.246;2023-06-04T04:11:21;11.10;99.90
55648;DHT22;45266;48.756;9.246;2023-06-04T04:12:23;11.10;99.90
55648;DHT22;45266;48.756;9.246;2023-06-04T04:13:26;11.10;99.90
55648;DHT22;45266;48.756;9.246;2023-06-04T04:14:27;11.10;99.90
55648;DHT22;45266;48.756;9.246;2023-06-04T04:15:29;11.10;99.90
55648;DHT22;45266;48.756;9.246;2023-06-04T04:16:31;11.10;99.90
55648;DHT22;45266;48.756;9.246;2023-06-04T04:17:33;11.10;99.90
55648;DHT22;45266;48.756;9.246;2023-06-04T04:18:35;11.20;99.90
55648;DHT22;45266;48.756;9.246;2023-06-04T04:19:38;11.20;99.90
55648;DHT22;45266;48.756;9.246;2023-06-04T04:20:39;11.20;99.90
55648;DHT22;45266;48.756;9.246;2023-06-04T04:21:41;11.30;99.90
55648;DHT22;45266;48.756;9.246;2023-06-04T04:22:43;11.20;99.90
55648;DHT22;45266;48.756;9.246;2023-06-04T04:23:45;11.20;99.90
55648;DHT22;45266;48.756;9.246;2023-06-04T04:24:47;11.30;99.90
55648;DHT22;45266;48.756;9.246;2023-06-04T04:25:49;11.20;99.90
55648;DHT22;45266;48.756;9.246;2023-06-04T04:26:51;11.20;99.90
55648;DHT22;45266;48.756;9.246;2023-06-04T04:27:56;11.30;99.90
55648;DHT22;45266;48.756;9.246;2023-06-04T04:29:02;11.30;99.90
55648;DHT22;45266;48.756;9.246;2023-06-04T04:30:04;11.40;99.90
55648;DHT22;45266;48.756;9.246;2023-06-04T04:31:06;11.40;99.90
55648;DHT22;45266;48.756;9.246;2023-06-04T04:32:10;11.50;99.90
55648;DHT22;45266;48.756;9.246;2023-06-04T04:33:13;11.50;99.90
55648;DHT22;45266;48.756;9.246;2023-06-04T04:34:17;11.50;99.90
55648;DHT22;45266;48.756;9.246;2023-06-04T04:35:22;11.50;99.90
55648;DHT22;45266;48.756;9.246;2023-06-04T04:36:25;11.60;99.90
55648;DHT22;45266;48.756;9.246;2023-06-04T04:37:27;11.60;99.90
55648;DHT22;45266;48.756;9.246;2023-06-04T04:38:29;11.60;99.90
55648;DHT22;45266;48.756;9.246;2023-06-04T04:39:33;11.60;99.90
55648;DHT22;45266;48.756;9.246;2023-06-04T04:40:34;11.60;99.90
55648;DHT22;45266;48.756;9.246;2023-06-04T04:41:37;11.70;99.90
55648;DHT22;45266;48.756;9.246;2023-06-04T04:42:39;11.60;99.90
55648;DHT22;45266;48.756;9.246;2023-06-04T04:43:43;11.60;99.90
55648;DHT22;45266;48.756;9.246;2023-06-04T04:44:45;11.70;99.90
55648;DHT22;45266;48.756;9.246;2023-06-04T04:45:49;11.70;99.90
55648;DHT22;45266;48.756;9.246;2023-06-04T04:46:51;11.60;99.90
55648;DHT22;45266;48.756;9.246;2023-06-04T04:47:53;11.70;99.90
55648;DHT22;45266;48.756;9.246;2023-06-04T04:48:55;11.70;99.90
55648;DHT22;45266;48.756;9.246;2023-06-04T04:49:57;11.70;99.90
55648;DHT22;45266;48.756;9.246;2023-06-04T04:50:59;11.80;99.90
55648;DHT22;45266;48.756;9.246;2023-06-04T04:52:00;11.90;99.90
55648;DHT22;45266;48.756;9.246;2023-06-04T04:53:03;11.90;99.90
55648;DHT22;45266;48.756;9.246;2023-06-04T04:54:04;11.90;99.90
55648;DHT22;45266;48.756;9.246;2023-06-04T04:55:07;12.00;99.90
55648;DHT22;45266;48.756;9.246;2023-06-04T04:56:09;12.00;99.90
55648;DHT22;45266;48.756;9.246;2023-06-04T04:57:10;12.10;99.90
55648;DHT22;45266;48.756;9.246;2023-06-04T04:58:15;12.10;99.90
55648;DHT22;45266;48.756;9.246;2023-06-04T04:59:17;12.20;99.90
55648;DHT22;45266;48.756;9.246;2023-06-04T05:00:19;12.30;99.90
55648;DHT22;45266;48.756;9.246;2023-06-04T05:01:22;12.30;99.90
55648;DHT22;45266;48.756;9.246;2023-06-04T05:02:24;12.40;99.90
55648;DHT22;45266;48.756;9.246;2023-06-04T05:03:26;12.40;99.90
55648;DHT22;45266;48.756;9.246;2023-06-04T05:04:28;12.50;99.90
55648;DHT22;45266;48.756;9.246;2023-06-04T05:05:31;12.60;99.90
55648;DHT22;45266;48.756;9.246;2023-06-04T05:06:33;12.70;99.90
55648;DHT22;45266;48.756;9.246;2023-06-04T05:07:35;12.70;99.90
55648;DHT22;45266;48.756;9.246;2023-06-04T05:08:37;12.80;99.90
55648;DHT22;45266;48.756;9.246;2023-06-04T05:09:39;12.80;99.90
55648;DHT22;45266;48.756;9.246;2023-06-04T05:10:41;12.90;99.90
55648;DHT22;45266;48.756;9.246;2023-06-04T05:11:43;13.00;99.90
55648;DHT22;45266;48.756;9.246;2023-06-04T05:12:55;13.10;99.90
55648;DHT22;45266;48.756;9.246;2023-06-04T05:13:57;13.20;99.90
55648;DHT22;45266;48.756;9.246;2023-06-04T05:14:59;13.30;99.90
55648;DHT22;45266;48.756;9.246;2023-06-04T05:16:02;13.30;99.90
55648;DHT22;45266;48.756;9.246;2023-06-04T05:17:08;13.40;99.90
55648;DHT22;45266;48.756;9.246;2023-06-04T05:18:12;13.50;99.90
55648;DHT22;45266;48.756;9.246;2023-06-04T05:19:16;13.60;99.90
55648;DHT22;45266;48.756;9.246;2023-06-04T05:20:19;13.60;99.90
55648;DHT22;45266;48.756;9.246;2023-06-04T05:21:22;13.70;99.90
55648;DHT22;45266;48.756;9.246;2023-06-04T05:22:24;13.80;99.90
55648;DHT22;45266;48.756;9.246;2023-06-04T05:23:30;13.80;99.90
55648;DHT22;45266;48.756;9.246;2023-06-04T05:24:34;13.90;99.90
55648;DHT22;45266;48.756;9.246;2023-06-04T05:25:36;14.00;99.90
55648;DHT22;45266;48.756;9.246;2023-06-04T05:26:38;14.10;99.90
55648;DHT22;45266;48.756;9.246;2023-06-04T05:27:41;14.10;99.90
55648;DHT22;45266;48.756;9.246;2023-06-04T05:28:43;14.20;99.90
55648;DHT22;45266;48.756;9.246;2023-06-04T05:29:45;14.30;99.90
55648;DHT22;45266;48.756;9.246;2023-06-04T05:30:47;14.30;99.90
55648;DHT22;45266;48.756;9.246;2023-06-04T05:31:50;14.40;99.90
55648;DHT22;45266;48.756;9.246;2023-06-04T05:32:52;14.50;99.90
55648;DHT22;45266;48.756;9.246;2023-06-04T05:33:55;14.60;99.90
55648;DHT22;45266;48.756;9.246;2023-06-04T05:34:58;14.60;99.90
55648;DHT22;45266;48.756;9.246;2023-06-04T05:36:00;14.70;99.90
55648;DHT22;45266;48.756;9.246;2023-06-04T05:37:02;14.80;99.90
55648;DHT22;45266;48.756;9.246;2023-06-04T05:38:06;14.80;99.90
55648;DHT22;45266;48.756;9.246;2023-06-04T05:39:09;14.90;99.90
55648;DHT22;45266;48.756;9.246;2023-06-04T05:40:11;15.00;99.90
55648;DHT22;45266;48.756;9.246;2023-06-04T05:41:14;15.00;99.90
55648;DHT22;45266;48.756;9.246;2023-06-04T05:42:16;15.10;99.90
55648;DHT22;45266;48.756;9.246;2023-06-04T05:43:18;15.20;99.90
55648;DHT22;45266;48.756;9.246;2023-06-04T05:44:20;15.30;97.90
55648;DHT22;45266;48.756;9.246;2023-06-04T05:45:21;15.30;96.00
55648;DHT22;45266;48.756;9.246;2023-06-04T05:46:23;15.40;89.90
55648;DHT22;45266;48.756;9.246;2023-06-04T05:47:26;15.50;86.60
55648;DHT22;45266;48.756;9.246;2023-06-04T05:48:30;15.60;90.00
55648;DHT22;45266;48.756;9.246;2023-06-04T05:49:34;15.60;88.60
55648;DHT22;45266;48.756;9.246;2023-06-04T05:50:36;15.60;81.30
55648;DHT22;45266;48.756;9.246;2023-06-04T05:51:38;15.80;76.00
55648;DHT22;45266;48.756;9.246;2023-06-04T05:52:39;15.80;73.10
55648;DHT22;45266;48.756;9.246;2023-06-04T05:53:41;15.80;73.20
55648;DHT22;45266;48.756;9.246;2023-06-04T05:54:43;15.80;74.50
55648;DHT22;45266;48.756;9.246;2023-06-04T05:55:45;15.80;72.70
55648;DHT22;45266;48.756;9.246;2023-06-04T05:56:47;15.90;73.00
55648;DHT22;45266;48.756;9.246;2023-06-04T05:57:49;15.90;73.60
55648;DHT22;45266;48.756;9.246;2023-06-04T05:58:53;15.90;78.60
55648;DHT22;45266;48.756;9.246;2023-06-04T05:59:55;16.00;78.20
55648;DHT22;45266;48.756;9.246;2023-06-04T06:00:57;16.00;77.40
55648;DHT22;45266;48.756;9.246;2023-06-04T06:01:59;16.10;74.10
55648;DHT22;45266;48.756;9.246;2023-06-04T06:03:01;16.10;71.20
55648;DHT22;45266;48.756;9.246;2023-06-04T06:04:03;16.10;71.60
55648;DHT22;45266;48.756;9.246;2023-06-04T06:05:05;16.20;67.50
55648;DHT22;45266;48.756;9.246;2023-06-04T06:06:09;16.20;68.40
55648;DHT22;45266;48.756;9.246;2023-06-04T06:07:15;16.30;66.10
55648;DHT22;45266;48.756;9.246;2023-06-04T06:08:17;16.30;65.10
55648;DHT22;45266;48.756;9.246;2023-06-04T06:09:20;16.40;69.00
55648;DHT22;45266;48.756;9.246;2023-06-04T06:10:22;16.50;68.50
55648;DHT22;45266;48.756;9.246;2023-06-04T06:11:23;16.60;66.30
55648;DHT22;45266;48.756;9.246;2023-06-04T06:12:25;16.60;68.40
55648;DHT22;45266;48.756;9.246;2023-06-04T06:13:27;16.70;66.10
55648;DHT22;45266;48.756;9.246;2023-06-04T06:14:29;16.80;67.00
55648;DHT22;45266;48.756;9.246;2023-06-04T06:15:31;16.90;65.80
55648;DHT22;45266;48.756;9.246;2023-06-04T06:16:35;17.00;67.20
55648;DHT22;45266;48.756;9.246;2023-06-04T06:17:38;17.00;67.10
55648;DHT22;45266;48.756;9.246;2023-06-04T06:18:40;17.10;63.60
55648;DHT22;45266;48.756;9.246;2023-06-04T06:19:42;17.10;64.10
55648;DHT22;45266;48.756;9.246;2023-06-04T06:20:44;17.20;65.30
55648;DHT22;45266;48.756;9.246;2023-06-04T06:21:46;17.20;65.60
55648;DHT22;45266;48.756;9.246;2023-06-04T06:22:48;17.20;65.80
55648;DHT22;45266;48.756;9.246;2023-06-04T06:23:50;17.30;64.50
55648;DHT22;45266;48.756;9.246;2023-06-04T06:24:52;17.40;62.30
55648;DHT22;45266;48.756;9.246;2023-06-04T06:25:53;17.40;62.00
55648;DHT22;45266;48.756;9.246;2023-06-04T06:26:55;17.50;62.50
55648;DHT22;45266;48.756;9.246;2023-06-04T06:27:58;17.60;60.90
55648;DHT22;45266;48.756;9.246;2023-06-04T06:29:00;17.60;59.90
55648;DHT22;45266;48.756;9.246;2023-06-04T06:30:02;17.60;59.30
55648;DHT22;45266;48.756;9.246;2023-06-04T06:31:05;17.70;59.40
55648;DHT22;45266;48.756;9.246;2023-06-04T06:32:08;17.60;59.70
55648;DHT22;45266;48.756;9.246;2023-06-04T06:33:10;17.60;61.90
55648;DHT22;45266;48.756;9.246;2023-06-04T06:34:12;17.70;61.80
55648;DHT22;45266;48.756;9.246;2023-06-04T06:35:14;17.70;60.60
55648;DHT22;45266;48.756;9.246;2023-06-04T06:36:15;17.70;62.00
55648;DHT22;45266;48.756;9.246;2023-06-04T06:37:20;17.70;62.90
55648;DHT22;45266;48.756;9.246;2023-06-04T06:38:22;17.70;61.90
55648;DHT22;45266;48.756;9.246;2023-06-04T06:39:24;17.70;62.00